Time;durP1;ratioP1;P1;durP2;ratioP2;P2;SDS_P1;SDS_P2;PMS_P1;PMS_P2;Temp;Humidity;BMP_temperature;BMP_pressure;BME280_temperature;BME280_humidity;BME280_pressure;Samples;Min_cycle;Max_cycle;Signal;HPM_P1;HPM_P2
2022/06/05 00:00:26;;;;;;;19.60;12.48;;;10.40;99.90;;;;;;5008981;28;20056;-45
2022/06/05 00:03:46;;;;;;;23.50;14.73;;;9.60;99.90;;;;;;5008760;28;20054;-46
2022/06/05 00:06:18;;;;;;;26.95;13.95;;;9.60;99.90;;;;;;5006130;28;20608;-48
2022/06/05 00:08:47;;;;;;;25.30;13.55;;;9.80;99.90;;;;;;5008656;28;20111;-48
2022/06/05 00:11:13;;;;;;;26.33;14.25;;;9.60;99.90;;;;;;5007464;28;20050;-47
2022/06/05 00:13:52;;;;;;;26.38;12.85;;;9.70;99.90;;;;;;5008738;28;20072;-46
2022/06/05 00:16:24;;;;;;;21.23;14.10;;;10.00;99.90;;;;;;5009134;28;20050;-46
2022/06/05 00:18:50;;;;;;;23.73;14.43;;;9.60;99.90;;;;;;5008641;28;20151;-47
2022/06/05 00:21:16;;;;;;;26.98;14.63;;;9.90;99.90;;;;;;5008742;28;20055;-47
2022/06/05 00:23:42;;;;;;;24.40;14.05;;;9.50;99.90;;;;;;5008933;28;20058;-47
2022/06/05 00:26:30;;;;;;;22.90;14.50;;;10.60;99.90;;;;;;5008490;28;20038;-47
2022/06/05 00:28:59;;;;;;;25.67;13.90;;;9.50;99.90;;;;;;5008980;28;20493;-46
2022/06/05 00:31:34;;;;;;;21.13;13.55;;;10.00;99.90;;;;;;5010447;28;20057;-46
2022/06/05 00:33:59;;;;;;;25.80;14.93;;;9.50;99.90;;;;;;5012348;28;20572;-46
2022/06/05 00:36:52;;;;;;;23.08;13.98;;;9.40;99.90;;;;;;5012499;28;20106;-49
2022/06/05 00:39:52;;;;;;;27.38;13.45;;;9.50;99.90;;;;;;5012819;28;20045;-47
2022/06/05 00:42:21;;;;;;;26.73;14.38;;;9.50;99.90;;;;;;5012823;28;20116;-46
2022/06/05 00:44:51;;;;;;;21.58;13.93;;;10.00;99.90;;;;;;5011102;28;20093;-47
2022/06/05 00:47:27;;;;;;;24.05;14.15;;;9.80;99.90;;;;;;5012827;28;20049;-47
2022/06/05 00:49:58;;;;;;;26.75;14.02;;;9.30;99.90;;;;;;5012432;28;20046;-46
2022/06/05 00:52:26;;;;;;;25.80;14.80;;;9.30;99.90;;;;;;5012328;28;20042;-49
2022/06/05 00:54:52;;;;;;;27.92;14.27;;;9.30;99.90;;;;;;5012011;28;20508;-46
2022/06/05 00:57:18;;;;;;;25.23;14.10;;;9.40;99.90;;;;;;5012498;28;20057;-46
2022/06/05 00:59:46;;;;;;;25.05;14.45;;;9.40;99.90;;;;;;5012244;28;20100;-46
2022/06/05 01:02:15;;;;;;;25.27;13.70;;;9.40;99.90;;;;;;5011986;28;20088;-47
2022/06/05 01:04:44;;;;;;;22.08;13.35;;;9.70;99.90;;;;;;5012107;28;20461;-49
2022/06/05 01:07:11;;;;;;;23.60;13.80;;;9.40;99.90;;;;;;5012036;28;20107;-47
2022/06/05 01:09:39;;;;;;;26.10;15.23;;;9.50;99.90;;;;;;5012012;28;20489;-46
2022/06/05 01:12:14;;;;;;;25.10;14.63;;;9.50;99.90;;;;;;5011944;28;20034;-46
2022/06/05 01:14:58;;;;;;;29.38;14.75;;;10.50;99.90;;;;;;5011915;28;20062;-46
2022/06/05 01:18:05;;;;;;;21.80;13.52;;;9.40;99.90;;;;;;5012326;28;20053;-47
2022/06/05 01:21:09;;;;;;;26.38;15.73;;;9.40;99.90;;;;;;5011970;28;20538;-46
2022/06/05 01:24:02;;;;;;;24.23;13.98;;;9.40;99.90;;;;;;5011849;28;20050;-46
2022/06/05 01:26:37;;;;;;;25.40;14.50;;;9.40;99.90;;;;;;5012027;28;20046;-46
2022/06/05 01:29:11;;;;;;;26.90;14.05;;;9.50;99.90;;;;;;5011521;28;20486;-46
2022/06/05 01:31:45;;;;;;;30.20;14.07;;;9.60;99.90;;;;;;5011932;28;20042;-45
2022/06/05 01:34:23;;;;;;;28.00;14.75;;;9.30;99.90;;;;;;5011790;28;20092;-46
2022/06/05 01:37:03;;;;;;;26.67;14.18;;;9.30;99.90;;;;;;5011853;28;20042;-47
2022/06/05 01:39:45;;;;;;;25.73;14.70;;;9.30;99.90;;;;;;5011736;28;20052;-48
2022/06/05 01:42:27;;;;;;;25.35;14.00;;;9.30;99.90;;;;;;5010192;28;20042;-47
2022/06/05 01:44:58;;;;;;;27.60;15.80;;;9.20;99.90;;;;;;5011615;28;20053;-47
2022/06/05 01:47:32;;;;;;;24.75;15.27;;;9.70;99.90;;;;;;5012951;28;20412;-47
2022/06/05 01:50:33;;;;;;;22.52;14.77;;;9.20;99.90;;;;;;5012926;28;20081;-48
2022/06/05 01:53:06;;;;;;;28.17;15.00;;;9.30;99.90;;;;;;5011104;28;20081;-46
2022/06/05 01:55:52;;;;;;;29.52;15.27;;;9.20;99.90;;;;;;5012643;28;20508;-46
2022/06/05 01:58:22;;;;;;;25.48;15.23;;;9.30;99.90;;;;;;5012695;28;20050;-46
2022/06/05 02:00:56;;;;;;;31.10;15.50;;;9.30;99.90;;;;;;5012727;28;20568;-46
2022/06/05 02:03:27;;;;;;;30.33;14.60;;;9.20;99.90;;;;;;5012355;28;20054;-46
2022/06/05 02:06:08;;;;;;;25.65;15.57;;;9.50;99.90;;;;;;5012675;28;20041;-46
2022/06/05 02:08:37;;;;;;;29.55;14.35;;;9.30;99.90;;;;;;5012665;28;20523;-46
2022/06/05 02:11:07;;;;;;;27.98;14.55;;;10.10;99.90;;;;;;5012529;28;20151;-47
2022/06/05 02:13:33;;;;;;;34.05;16.42;;;9.60;99.90;;;;;;5012616;28;20057;-45
2022/06/05 02:15:59;;;;;;;34.25;15.48;;;9.30;99.90;;;;;;5012766;28;20049;-46
2022/06/05 02:18:24;;;;;;;29.35;15.20;;;9.30;99.90;;;;;;5012487;28;20050;-46
2022/06/05 02:20:51;;;;;;;27.55;15.00;;;9.30;99.90;;;;;;5012666;28;20044;-47
2022/06/05 02:23:21;;;;;;;34.13;16.42;;;9.10;99.90;;;;;;5012313;28;20034;-46
2022/06/05 02:25:47;;;;;;;38.83;15.32;;;9.70;99.90;;;;;;5027688;28;20050;-46
2022/06/05 02:28:16;;;;;;;33.38;15.27;;;10.20;99.90;;;;;;5012405;28;20401;-46
2022/06/05 02:31:26;;;;;;;35.75;15.27;;;10.10;99.90;;;;;;5012871;28;20033;-46
2022/06/05 02:34:06;;;;;;;30.90;14.95;;;9.20;99.90;;;;;;5010134;28;20362;-46
2022/06/05 02:36:50;;;;;;;33.55;14.77;;;9.20;99.90;;;;;;5012161;28;20125;-47
2022/06/05 02:39:33;;;;;;;32.67;15.70;;;9.10;99.90;;;;;;5012307;28;20037;-46
2022/06/05 02:42:23;;;;;;;34.85;15.55;;;9.20;99.90;;;;;;5012286;28;20046;-46
2022/06/05 02:44:55;;;;;;;30.33;16.50;;;9.20;99.90;;;;;;5012358;28;20045;-47
2022/06/05 02:47:42;;;;;;;32.90;15.98;;;9.20;99.90;;;;;;5011974;28;20095;-46
2022/06/05 02:50:29;;;;;;;35.83;15.73;;;9.20;99.90;;;;;;5012063;28;20401;-46
2022/06/05 02:53:03;;;;;;;36.72;17.45;;;9.20;99.90;;;;;;5012107;28;20049;-46
2022/06/05 02:55:29;;;;;;;33.80;16.52;;;9.30;99.90;;;;;;5011588;28;20046;-46
2022/06/05 02:57:55;;;;;;;39.63;17.38;;;9.40;99.90;;;;;;5011962;28;20461;-46
2022/06/05 03:00:27;;;;;;;32.78;16.85;;;9.20;99.90;;;;;;5010364;28;20042;-47
2022/06/05 03:05:38;;;;;;;41.40;17.75;;;9.30;99.90;;;;;;5011778;28;20060;-46
2022/06/05 03:08:05;;;;;;;36.83;17.67;;;9.40;99.90;;;;;;5011805;28;20037;-46
2022/06/05 03:10:31;;;;;;;40.38;18.20;;;9.30;99.90;;;;;;5011892;28;20389;-47
2022/06/05 03:12:57;;;;;;;44.58;19.17;;;9.40;99.90;;;;;;5011776;28;20054;-46
2022/06/05 03:15:23;;;;;;;38.13;18.60;;;9.30;99.90;;;;;;5011686;28;20045;-46
2022/06/05 03:17:49;;;;;;;41.95;19.00;;;10.00;99.90;;;;;;5011651;28;20508;-48
2022/06/05 03:20:17;;;;;;;43.85;20.25;;;9.50;99.90;;;;;;5011458;28;20048;-45
2022/06/05 03:22:43;;;;;;;44.40;18.90;;;9.40;99.90;;;;;;5011479;28;20444;-46
2022/06/05 03:25:15;;;;;;;51.65;21.27;;;9.50;99.90;;;;;;5011557;28;20038;-46
2022/06/05 03:27:40;;;;;;;42.08;20.30;;;9.70;99.90;;;;;;5011288;28;20044;-46
2022/06/05 03:30:07;;;;;;;46.47;19.45;;;9.80;99.90;;;;;;5011534;28;20452;-46
2022/06/05 03:32:32;;;;;;;42.97;20.02;;;9.70;99.90;;;;;;5011216;28;20465;-46
2022/06/05 03:34:58;;;;;;;46.55;20.27;;;9.60;99.90;;;;;;5011337;28;20084;-46
2022/06/05 03:37:24;;;;;;;49.08;20.52;;;9.70;99.90;;;;;;5010968;28;20050;-46
2022/06/05 03:39:49;;;;;;;41.72;19.40;;;9.80;99.90;;;;;;5011070;28;20125;-45
2022/06/05 03:42:15;;;;;;;42.05;18.80;;;10.00;99.90;;;;;;5010932;28;20049;-46
2022/06/05 03:44:42;;;;;;;46.65;20.92;;;9.90;99.90;;;;;;5011047;28;20119;-46
2022/06/05 03:47:10;;;;;;;39.78;19.30;;;9.90;99.90;;;;;;5011166;28;20034;-46
2022/06/05 03:49:36;;;;;;;41.22;19.58;;;10.30;99.90;;;;;;5010914;28;20038;-46
2022/06/05 03:52:04;;;;;;;37.83;19.65;;;10.20;99.90;;;;;;5010859;28;20049;-46
2022/06/05 03:54:30;;;;;;;37.38;18.77;;;10.10;99.90;;;;;;5010675;28;20068;-46
2022/06/05 03:56:56;;;;;;;37.33;18.65;;;10.90;99.90;;;;;;5010750;28;20497;-46
2022/06/05 03:59:21;;;;;;;36.45;17.88;;;10.10;99.90;;;;;;5010802;28;20053;-47
2022/06/05 04:01:48;;;;;;;38.47;19.33;;;10.10;99.90;;;;;;5010388;28;20135;-46
2022/06/05 04:04:14;;;;;;;36.63;18.88;;;10.60;99.90;;;;;;5010631;28;20110;-46
2022/06/05 04:06:40;;;;;;;34.55;18.48;;;10.80;99.90;;;;;;5010192;28;20052;-45
2022/06/05 04:09:08;;;;;;;35.75;18.42;;;10.60;99.90;;;;;;5010461;28;20493;-46
2022/06/05 04:11:36;;;;;;;35.92;19.30;;;10.70;99.90;;;;;;5010299;28;20053;-46
2022/06/05 04:14:03;;;;;;;32.25;18.00;;;10.50;99.90;;;;;;5010378;28;20076;-46
2022/06/05 04:16:31;;;;;;;32.83;17.45;;;10.80;99.90;;;;;;5010294;28;20045;-46
2022/06/05 04:18:58;;;;;;;29.77;16.67;;;10.70;99.90;;;;;;5011028;28;20121;-47
2022/06/05 04:21:26;;;;;;;27.77;15.18;;;10.90;99.90;;;;;;5010393;28;20042;-45
2022/06/05 04:23:53;;;;;;;28.63;16.60;;;11.00;99.90;;;;;;5010498;28;20034;-46
2022/06/05 04:26:22;;;;;;;30.35;17.02;;;11.00;99.90;;;;;;5010478;28;20046;-45
2022/06/05 04:28:48;;;;;;;28.35;16.67;;;10.90;99.90;;;;;;5010629;28;20134;-47
2022/06/05 04:31:24;;;;;;;26.48;17.02;;;11.80;99.90;;;;;;5010597;28;20120;-47
2022/06/05 04:33:52;;;;;;;24.10;16.50;;;11.00;99.90;;;;;;5010600;28;20050;-46
2022/06/05 04:36:18;;;;;;;26.02;15.38;;;11.90;99.90;;;;;;5010599;28;20120;-47
2022/06/05 04:38:44;;;;;;;25.27;15.90;;;11.40;99.90;;;;;;5010580;28;20042;-46
2022/06/05 04:41:10;;;;;;;21.65;15.70;;;11.70;99.90;;;;;;5010142;28;20049;-46
2022/06/05 04:43:36;;;;;;;23.90;15.95;;;11.50;99.90;;;;;;5010200;28;20030;-46
2022/06/05 04:46:03;;;;;;;21.50;15.90;;;12.40;99.90;;;;;;5010488;28;20046;-47
2022/06/05 04:48:29;;;;;;;20.05;15.50;;;11.80;99.90;;;;;;5009960;28;20545;-47
2022/06/05 04:50:54;;;;;;;20.83;15.35;;;11.90;99.90;;;;;;5010492;28;20049;-47
2022/06/05 04:53:20;;;;;;;20.38;14.20;;;12.30;99.90;;;;;;5010402;28;20130;-46
2022/06/05 04:55:45;;;;;;;20.77;15.05;;;13.10;99.90;;;;;;5010641;28;20103;-47
2022/06/05 04:58:11;;;;;;;18.27;14.43;;;12.60;99.90;;;;;;5010276;28;20125;-46
2022/06/05 05:00:39;;;;;;;19.90;15.20;;;12.70;99.90;;;;;;5010155;28;20050;-45
2022/06/05 05:03:05;;;;;;;19.92;13.75;;;13.30;99.90;;;;;;5008685;28;20050;-46
2022/06/05 05:05:30;;;;;;;18.63;14.98;;;13.10;99.90;;;;;;5009924;28;20126;-46
2022/06/05 05:07:56;;;;;;;20.98;14.88;;;13.20;99.90;;;;;;5010288;28;20134;-46
2022/06/05 05:10:22;;;;;;;18.90;14.90;;;13.50;99.90;;;;;;5010229;28;20042;-46
2022/06/05 05:12:48;;;;;;;16.90;13.73;;;13.10;99.90;;;;;;5010247;28;20084;-46
2022/06/05 05:15:14;;;;;;;17.88;13.60;;;13.30;99.90;;;;;;5009751;28;20058;-46
2022/06/05 05:17:40;;;;;;;17.08;12.80;;;;;;;;;;5011951;28;20064;-45
2022/06/05 05:20:06;;;;;;;19.40;14.27;;;13.60;99.90;;;;;;5013773;28;20131;-46
2022/06/05 05:22:37;;;;;;;19.33;13.52;;;13.90;99.90;;;;;;5013562;28;20133;-46
2022/06/05 05:25:08;;;;;;;17.30;12.68;;;14.20;99.90;;;;;;5013675;28;20045;-45
2022/06/05 05:27:35;;;;;;;16.00;13.93;;;14.90;99.90;;;;;;5013607;28;20042;-50
2022/06/05 05:30:02;;;;;;;17.17;13.35;;;15.20;99.90;;;;;;5013344;28;20049;-46
2022/06/05 05:32:28;;;;;;;14.18;12.68;;;15.40;99.90;;;;;;5013492;28;20393;-46
2022/06/05 05:34:54;;;;;;;18.88;13.15;;;15.40;99.90;;;;;;5013212;28;20539;-46
2022/06/05 05:37:20;;;;;;;16.17;12.77;;;15.70;99.90;;;;;;5013505;28;20054;-46
2022/06/05 05:42:30;;;;;;;13.63;11.85;;;15.50;99.90;;;;;;5012894;28;20058;-46
2022/06/05 05:44:56;;;;;;;13.95;12.38;;;15.60;99.90;;;;;;5013302;28;20050;-46
2022/06/05 05:47:31;;;;;;;16.10;12.70;;;15.70;99.90;;;;;;5013334;28;20042;-46
2022/06/05 05:49:59;;;;;;;17.05;12.25;;;15.70;99.90;;;;;;5013241;28;20037;-46
2022/06/05 05:52:26;;;;;;;16.98;12.40;;;15.70;99.90;;;;;;5013277;28;20042;-47
2022/06/05 05:54:52;;;;;;;14.32;12.48;;;15.80;99.90;;;;;;5012873;28;20057;-45
2022/06/05 05:57:18;;;;;;;18.90;12.65;;;15.90;99.90;;;;;;5013150;28;20050;-46
2022/06/05 05:59:44;;;;;;;13.95;11.70;;;15.90;99.90;;;;;;5012902;28;20049;-46
2022/06/05 06:02:19;;;;;;;13.73;11.90;;;15.90;99.90;;;;;;5012980;28;20042;-46
2022/06/05 06:04:45;;;;;;;12.75;11.38;;;15.80;99.90;;;;;;5012650;28;20038;-46
2022/06/05 06:07:11;;;;;;;15.32;11.70;;;16.00;99.90;;;;;;5013023;28;20049;-45
2022/06/05 06:09:38;;;;;;;12.90;10.75;;;16.00;99.90;;;;;;5012669;28;20095;-46
2022/06/05 06:12:04;;;;;;;15.20;12.57;;;16.10;99.90;;;;;;5012882;28;20393;-46
2022/06/05 06:14:30;;;;;;;13.57;12.15;;;16.20;99.90;;;;;;5012374;28;20069;-47
2022/06/05 06:16:55;;;;;;;14.07;11.13;;;16.50;99.90;;;;;;5012656;28;20042;-47
2022/06/05 06:19:21;;;;;;;15.38;12.13;;;16.50;99.90;;;;;;5012792;28;20122;-46
2022/06/05 06:21:47;;;;;;;13.20;10.50;;;16.70;99.90;;;;;;5012538;28;20073;-46
2022/06/05 06:24:13;;;;;;;12.23;10.50;;;17.00;99.90;;;;;;5012640;28;20042;-46
2022/06/05 06:26:40;;;;;;;12.15;9.75;;;17.40;99.90;;;;;;5012421;28;20049;-47
2022/06/05 06:29:06;;;;;;;14.20;10.57;;;17.70;99.90;;;;;;5011669;28;20034;-46
2022/06/05 06:31:33;;;;;;;12.73;10.25;;;17.90;99.90;;;;;;5012484;28;20042;-47
2022/06/05 06:34:01;;;;;;;11.68;10.23;;;18.20;99.90;;;;;;5012214;28;20092;-47
2022/06/05 06:36:27;;;;;;;12.93;10.63;;;18.50;99.90;;;;;;5012101;28;20053;-46
2022/06/05 06:38:53;;;;;;;9.63;8.43;;;18.70;99.90;;;;;;5012210;28;20108;-45
2022/06/05 06:41:20;;;;;;;12.48;10.10;;;19.10;99.90;;;;;;5012218;28;22036;-45
2022/06/05 06:43:47;;;;;;;12.27;9.73;;;19.40;98.40;;;;;;5012150;28;20486;-47
2022/06/05 06:46:14;;;;;;;10.68;8.88;;;19.50;97.40;;;;;;5012476;28;20046;-46
2022/06/05 06:48:40;;;;;;;12.63;8.85;;;19.70;96.10;;;;;;5012171;28;20049;-47
2022/06/05 06:51:06;;;;;;;12.40;9.18;;;20.20;95.50;;;;;;5012093;28;20117;-47
2022/06/05 06:53:33;;;;;;;11.00;8.38;;;20.60;94.00;;;;;;5012091;28;20450;-48
2022/06/05 06:55:59;;;;;;;10.55;8.70;;;21.10;92.40;;;;;;5011683;28;20080;-47
2022/06/05 06:58:25;;;;;;;10.10;8.88;;;22.00;91.40;;;;;;5012043;28;20427;-46
2022/06/05 07:00:51;;;;;;;11.48;8.30;;;22.70;90.20;;;;;;5011649;28;20046;-46
2022/06/05 07:03:17;;;;;;;12.85;8.23;;;23.10;87.20;;;;;;5011762;28;20175;-47
2022/06/05 07:05:42;;;;;;;9.40;7.80;;;23.60;84.30;;;;;;5011586;28;20038;-48
2022/06/05 07:08:09;;;;;;;9.45;8.02;;;24.10;80.70;;;;;;5011798;28;20034;-47
2022/06/05 07:10:37;;;;;;;9.05;7.45;;;24.70;79.00;;;;;;5012019;28;20054;-46
2022/06/05 07:13:03;;;;;;;11.27;7.80;;;25.30;75.90;;;;;;5011641;28;20049;-46
2022/06/05 07:15:34;;;;;;;8.50;7.32;;;26.10;74.20;;;;;;5011232;28;20567;-46
2022/06/05 07:18:04;;;;;;;7.68;6.70;;;26.80;71.70;;;;;;5011280;28;20049;-46
2022/06/05 07:20:34;;;;;;;7.88;7.13;;;27.30;69.60;;;;;;5011529;28;20053;-46
2022/06/05 07:23:01;;;;;;;8.23;7.10;;;27.40;66.10;;;;;;5011114;28;20045;-46
2022/06/05 07:25:28;;;;;;;7.57;6.78;;;27.10;65.90;;;;;;5011790;28;20045;-47
2022/06/05 07:27:54;;;;;;;7.05;6.35;;;27.40;65.70;;;;;;5011025;28;20042;-46
2022/06/05 07:30:20;;;;;;;7.70;5.57;;;27.30;64.70;;;;;;5011182;28;20115;-47
2022/06/05 07:32:47;;;;;;;8.73;6.70;;;27.40;65.10;;;;;;5011073;28;20124;-47
2022/06/05 07:35:13;;;;;;;6.70;5.85;;;27.40;63.80;;;;;;5011203;28;20053;-47
2022/06/05 07:37:39;;;;;;;7.07;6.38;;;27.60;63.30;;;;;;5011367;28;20052;-46
2022/06/05 07:40:06;;;;;;;7.18;5.85;;;28.20;62.40;;;;;;5011049;28;20049;-46
2022/06/05 07:42:35;;;;;;;6.38;5.38;;;28.50;61.70;;;;;;5011198;28;20135;-48
2022/06/05 07:45:00;;;;;;;6.30;5.63;;;28.80;60.10;;;;;;5010550;28;20038;-47
2022/06/05 07:47:26;;;;;;;7.65;5.70;;;29.20;60.40;;;;;;5010754;28;20133;-47
2022/06/05 07:49:52;;;;;;;6.00;5.40;;;29.30;59.20;;;;;;5010541;28;20046;-47
2022/06/05 07:55:02;;;;;;;6.10;5.10;;;29.10;58.40;;;;;;5010648;28;20048;-46
2022/06/05 07:57:28;;;;;;;7.32;5.82;;;28.80;58.50;;;;;;5011120;28;20457;-47
2022/06/05 07:59:54;;;;;;;7.45;5.00;;;28.70;58.70;;;;;;5010806;28;20077;-48
2022/06/05 08:02:22;;;;;;;5.85;5.35;;;28.50;58.90;;;;;;5010770;28;20108;-46
2022/06/05 08:04:49;;;;;;;7.13;5.32;;;28.40;58.30;;;;;;5010443;28;20042;-49
2022/06/05 08:07:20;;;;;;;7.05;5.30;;;28.30;58.50;;;;;;5010680;28;20034;-48
2022/06/05 08:09:46;;;;;;;5.70;4.70;;;28.20;58.70;;;;;;5010615;28;20097;-46
2022/06/05 08:12:14;;;;;;;4.78;4.38;;;28.10;58.30;;;;;;5010531;28;20129;-46
2022/06/05 08:14:42;;;;;;;4.80;4.28;;;27.90;58.20;;;;;;5010471;28;20093;-48
2022/06/05 08:17:11;;;;;;;6.70;4.55;;;27.60;58.20;;;;;;5009351;28;20627;-58
2022/06/05 08:19:38;;;;;;;5.78;4.18;;;27.70;58.20;;;;;;5009825;28;20128;-46
2022/06/05 08:22:04;;;;;;;5.90;4.80;;;27.70;58.30;;;;;;5010363;28;20048;-48
2022/06/05 08:24:29;;;;;;;6.63;5.43;;;27.90;58.50;;;;;;5010695;28;20129;-47
2022/06/05 08:26:55;;;;;;;5.47;4.25;;;28.10;57.90;;;;;;5010287;28;20041;-47
2022/06/05 08:29:21;;;;;;;8.68;5.43;;;28.30;57.50;;;;;;4988896;28;20100;-50
2022/06/05 08:31:48;;;;;;;5.85;5.25;;;28.40;57.50;;;;;;5002361;28;20061;-47
2022/06/05 08:34:14;;;;;;;5.50;5.00;;;28.40;57.30;;;;;;5008217;28;20096;-48
2022/06/05 08:36:41;;;;;;;8.02;4.97;;;28.30;57.10;;;;;;5006694;28;20073;-46
2022/06/05 08:42:06;;;;;;;7.95;5.18;;;27.70;57.10;;;;;;5007134;28;20057;-44
2022/06/05 08:44:56;;;;;;;6.80;5.65;;;27.50;58.20;;;;;;5007970;28;20057;-43
2022/06/05 08:47:29;;;;;;;5.85;5.03;;;27.20;57.50;;;;;;5007382;28;20041;-45
2022/06/05 08:50:16;;;;;;;6.40;5.25;;;26.90;58.80;;;;;;5007408;28;20536;-46
2022/06/05 08:52:59;;;;;;;7.78;4.90;;;26.50;59.50;;;;;;5010053;28;20136;-46
2022/06/05 08:55:31;;;;;;;7.15;5.00;;;26.20;60.10;;;;;;5011918;28;20046;-44
2022/06/05 08:58:18;;;;;;;6.32;5.18;;;25.90;60.80;;;;;;5011247;28;20129;-44
2022/06/05 09:00:48;;;;;;;6.00;5.40;;;25.60;61.30;;;;;;5011360;28;20054;-46
2022/06/05 09:03:24;;;;;;;6.23;5.63;;;25.40;62.10;;;;;;5011600;28;20041;-47
2022/06/05 09:06:04;;;;;;;6.57;5.25;;;25.40;62.70;;;;;;5011020;28;20050;-44
2022/06/05 09:08:33;;;;;;;5.82;5.07;;;25.70;62.70;;;;;;5011621;28;20053;-44
2022/06/05 09:11:04;;;;;;;7.70;4.82;;;26.20;62.00;;;;;;5011563;28;20043;-46
2022/06/05 09:13:54;;;;;;;6.72;5.40;;;26.60;60.90;;;;;;5011569;28;20701;-45
2022/06/05 09:16:28;;;;;;;7.97;5.72;;;27.00;60.90;;;;;;5007869;28;20548;-47
2022/06/05 09:18:55;;;;;;;5.95;4.82;;;27.10;59.50;;;;;;4999872;28;20057;-42
2022/06/05 09:21:31;;;;;;;5.55;4.70;;;27.20;59.60;;;;;;5021719;28;20757;-43
2022/06/05 09:24:25;;;;;;;7.55;5.18;;;27.50;59.80;;;;;;5009158;28;20058;-47
2022/06/05 09:27:00;;;;;;;6.95;6.10;;;27.80;59.10;;;;;;5009448;28;20121;-46
2022/06/05 09:29:52;;;;;;;5.50;4.90;;;28.20;58.20;;;;;;5009141;28;20096;-46
2022/06/05 09:32:17;;;;;;;;;;;28.60;58.00;;;;;;5009010;28;20096;-43
2022/06/05 09:34:53;;;;;;;5.45;4.88;;;28.50;56.40;;;;;;5008836;28;20406;-44
2022/06/05 09:37:42;;;;;;;6.40;4.65;;;28.30;57.20;;;;;;5008578;28;20049;-45
2022/06/05 09:40:39;;;;;;;5.75;5.10;;;28.20;57.20;;;;;;5008548;28;20930;-45
2022/06/05 09:43:31;;;;;;;5.28;4.47;;;28.50;55.90;;;;;;5008822;28;20057;-51
2022/06/05 09:46:35;;;;;;;5.28;4.45;;;29.10;57.30;;;;;;5008887;28;20063;-51
2022/06/05 09:49:13;;;;;;;5.55;4.90;;;29.50;56.60;;;;;;5007959;28;20045;-52
2022/06/05 09:51:42;;;;;;;8.73;5.13;;;29.50;54.90;;;;;;5009101;28;20096;-44
2022/06/05 09:54:23;;;;;;;5.80;4.82;;;29.20;55.70;;;;;;5008541;28;20050;-45
2022/06/05 10:00:03;;;;;;;5.22;4.70;;;29.50;55.10;;;;;;5009130;28;20056;-45
2022/06/05 10:02:30;;;;;;;6.82;4.85;;;29.50;56.20;;;;;;5008663;28;20057;-44
2022/06/05 10:04:56;;;;;;;4.97;3.92;;;29.40;55.80;;;;;;5007353;28;20034;-45
2022/06/05 10:07:29;;;;;;;5.38;4.25;;;29.40;56.10;;;;;;5008533;28;20081;-47
2022/06/05 10:09:56;;;;;;;5.32;4.38;;;29.70;55.90;;;;;;5008744;28;20125;-45
2022/06/05 10:12:38;;;;;;;9.30;4.28;;;29.90;55.90;;;;;;5008646;28;20053;-44
2022/06/05 10:15:24;;;;;;;6.38;4.70;;;30.00;54.90;;;;;;5008244;28;20061;-43
2022/06/05 10:18:03;;;;;;;8.43;4.15;;;29.90;54.60;;;;;;5007621;28;20069;-43
2022/06/05 10:20:41;;;;;;;4.72;4.32;;;29.70;55.20;;;;;;5008240;28;20046;-43
2022/06/05 10:23:35;;;;;;;6.40;4.20;;;29.80;54.70;;;;;;5008498;28;20465;-41
2022/06/05 10:26:37;;;;;;;5.25;4.68;;;30.20;54.20;;;;;;5008436;28;20044;-41
2022/06/05 10:29:26;;;;;;;5.57;4.20;;;30.30;53.30;;;;;;5008117;28;20080;-41
2022/06/05 10:32:00;;;;;;;4.57;4.10;;;30.30;53.80;;;;;;4988672;28;20054;-41
2022/06/05 10:34:54;;;;;;;11.50;3.80;;;30.20;54.80;;;;;;5008339;28;20049;-41
2022/06/05 10:37:37;;;;;;;5.50;3.55;;;30.10;54.20;;;;;;5007748;28;20494;-40
2022/06/05 10:40:17;;;;;;;5.40;4.40;;;29.90;54.80;;;;;;5006118;28;20045;-44
2022/06/05 10:43:03;;;;;;;6.43;3.60;;;29.70;54.20;;;;;;5008087;28;20634;-52
2022/06/05 10:45:46;;;;;;;7.57;4.18;;;29.50;55.50;;;;;;5007991;28;20389;-43
2022/06/05 10:48:18;;;;;;;5.80;4.00;;;29.30;55.00;;;;;;5007447;28;20042;-42
2022/06/05 10:51:13;;;;;;;5.30;3.83;;;29.00;55.30;;;;;;5007643;28;20038;-45
2022/06/05 10:53:58;;;;;;;6.65;4.13;;;28.60;55.70;;;;;;5005908;28;20054;-42
2022/06/05 10:56:47;;;;;;;5.43;3.80;;;28.10;56.30;;;;;;5007174;28;20402;-44
2022/06/05 10:59:42;;;;;;;6.85;3.35;;;27.80;57.20;;;;;;5007337;28;20050;-46
2022/06/05 11:02:10;;;;;;;4.53;4.03;;;27.60;58.50;;;;;;5005797;28;20065;-44
2022/06/05 11:04:57;;;;;;;8.75;3.90;;;27.40;59.00;;;;;;5006456;28;20045;-43
2022/06/05 11:07:51;;;;;;;4.90;3.95;;;27.30;58.40;;;;;;5006338;28;20546;-45
2022/06/05 11:13:39;;;;;;;5.13;3.33;;;27.20;58.60;;;;;;5006533;28;20401;-41
2022/06/05 11:13:47;;;;;;;4.85;3.33;;;27.00;58.00;;;;;;5006970;28;20050;-41
2022/06/05 11:16:23;;;;;;;4.35;3.25;;;26.90;59.10;;;;;;5004962;28;20064;-43
2022/06/05 11:19:08;;;;;;;7.85;4.05;;;26.90;59.20;;;;;;5007053;28;20048;-45
2022/06/05 11:21:34;;;;;;;4.40;3.40;;;26.90;59.90;;;;;;5006763;28;20076;-48
2022/06/05 11:24:01;;;;;;;6.25;3.92;;;27.10;59.40;;;;;;5006260;28;20042;-46
2022/06/05 11:26:41;;;;;;;4.18;3.42;;;27.00;59.30;;;;;;5006606;28;20432;-47
2022/06/05 11:29:20;;;;;;;5.30;3.60;;;26.90;59.10;;;;;;5006052;28;20566;-47
2022/06/05 11:32:27;;;;;;;5.65;3.72;;;26.80;59.40;;;;;;4987389;28;20056;-50
2022/06/05 11:34:58;;;;;;;5.93;3.65;;;26.80;59.70;;;;;;5006142;28;20141;-47
2022/06/05 11:37:43;;;;;;;3.70;2.90;;;26.70;59.30;;;;;;5005964;28;20485;-53
2022/06/05 11:40:20;;;;;;;5.28;3.35;;;26.70;60.00;;;;;;5006688;28;20386;-40
2022/06/05 11:43:16;;;;;;;7.30;4.07;;;26.50;60.10;;;;;;5008514;28;20046;-42
2022/06/05 11:45:54;;;;;;;5.78;3.42;;;26.50;59.60;;;;;;5008303;28;20389;-41
2022/06/05 11:48:37;;;;;;;5.32;4.05;;;26.50;60.20;;;;;;5008103;28;20038;-55
2022/06/05 11:51:28;;;;;;;4.32;3.35;;;26.50;59.80;;;;;;5008419;28;20038;-52
2022/06/05 11:54:20;;;;;;;5.22;3.58;;;26.40;59.70;;;;;;5008176;28;20056;-43
2022/06/05 11:57:07;;;;;;;5.32;3.50;;;26.20;59.70;;;;;;5008576;28;20124;-43
2022/06/05 12:00:00;;;;;;;4.40;3.50;;;26.00;60.50;;;;;;5008068;28;20125;-45
2022/06/05 12:02:38;;;;;;;3.45;3.00;;;25.90;61.30;;;;;;5008448;28;20052;-43
2022/06/05 12:05:15;;;;;;;4.10;3.20;;;28.00;62.80;;;;;;5010746;28;20046;-44
2022/06/05 12:07:44;;;;;;;5.85;3.10;;;25.70;59.80;;;;;;5008515;28;20477;-45
2022/06/05 12:10:33;;;;;;;4.03;3.60;;;25.60;60.80;;;;;;5006597;28;20060;-43
2022/06/05 12:13:36;;;;;;;3.50;3.08;;;25.50;61.50;;;;;;5009275;28;20073;-45
2022/06/05 12:16:08;;;;;;;4.28;3.40;;;25.40;61.40;;;;;;5008035;28;20176;-46
2022/06/05 12:19:00;;;;;;;4.45;3.50;;;25.30;62.20;;;;;;5009331;28;20061;-45
2022/06/05 12:21:27;;;;;;;6.80;3.42;;;25.20;62.60;;;;;;5009404;28;20041;-45
2022/06/05 12:24:14;;;;;;;5.10;3.80;;;25.10;62.30;;;;;;5009228;28;20041;-45
2022/06/05 12:27:11;;;;;;;4.00;3.60;;;24.90;62.40;;;;;;5008875;28;20551;-44
2022/06/05 12:30:03;;;;;;;4.07;3.60;;;24.80;63.30;;;;;;5008771;28;20088;-44
2022/06/05 12:32:57;;;;;;;8.93;4.28;;;24.60;62.80;;;;;;5008657;28;20058;-43
2022/06/05 12:35:35;;;;;;;5.10;3.20;;;24.50;63.40;;;;;;5007620;28;20132;-44
2022/06/05 12:38:31;;;;;;;4.55;3.63;;;24.40;63.50;;;;;;5009001;28;20064;-47
2022/06/05 12:41:09;;;;;;;3.65;3.30;;;24.40;64.30;;;;;;5009196;28;20433;-48
2022/06/05 12:43:57;;;;;;;4.60;3.42;;;24.40;64.90;;;;;;5009219;28;20050;-44
2022/06/05 12:47:01;;;;;;;5.95;3.30;;;24.50;65.40;;;;;;5009440;28;20048;-45
2022/06/05 12:49:35;;;;;;;5.82;3.42;;;24.60;65.60;;;;;;5007885;28;20168;-44
2022/06/05 12:52:14;;;;;;;7.10;3.53;;;24.60;65.40;;;;;;5009789;28;20053;-45
2022/06/05 12:55:01;;;;;;;4.13;3.13;;;24.60;65.70;;;;;;5009673;28;20049;-44
2022/06/05 12:57:32;;;;;;;6.20;3.25;;;24.60;65.10;;;;;;5009711;28;20104;-44
2022/06/05 13:00:21;;;;;;;3.97;3.33;;;24.60;64.80;;;;;;5009545;28;20092;-44
2022/06/05 13:02:58;;;;;;;5.63;3.55;;;24.60;65.10;;;;;;5008451;28;20065;-45
2022/06/05 13:05:35;;;;;;;4.43;3.28;;;24.70;64.60;;;;;;5009579;28;20037;-43
2022/06/05 13:08:27;;;;;;;3.97;3.17;;;24.80;64.10;;;;;;5009478;28;20126;-46
2022/06/05 13:11:07;;;;;;;7.85;3.08;;;24.90;63.40;;;;;;5009352;28;20042;-45
2022/06/05 13:13:52;;;;;;;4.55;3.30;;;25.00;63.60;;;;;;5009212;28;20062;-47
2022/06/05 13:16:36;;;;;;;4.75;3.30;;;25.10;64.30;;;;;;5009352;28;20049;-43
2022/06/05 13:19:05;;;;;;;4.07;3.20;;;25.20;63.30;;;;;;5009622;28;20045;-45
2022/06/05 13:21:41;;;;;;;5.28;3.15;;;25.20;63.30;;;;;;5008916;28;20058;-44
2022/06/05 13:24:39;;;;;;;4.35;2.92;;;25.20;63.40;;;;;;5009516;28;20728;-44
2022/06/05 13:27:25;;;;;;;3.53;2.97;;;25.30;62.70;;;;;;5009248;28;20099;-46
2022/06/05 13:30:13;;;;;;;5.13;3.28;;;25.40;63.30;;;;;;5009169;28;20057;-44